Garcia Miguel — CUGT9 — position and weather

sailwx.info

Track history (hours):
 
Tides and Currents Weather Stations Pressure Air Temp Water Temp Dewpoint Dewpoint Depression Visibility Wind Speed Wind Dir Waves Ship Positions

Garcia Miguel

Last reported at 2017-Apr-25 06:04 UTC. Time now 2017-May-01 06:09 UTC.
Position N 38°04' W 009°32'.

Length 20 m.

Type: Fishing. MMSI: 263500286.

Date/timePositionNaut miles runAvg speedWind from/ knotsBaromVisibWave heightAir tempDewpointWater temp
2017-Apr-25 06:04N 38°04' W 009°32'1 6.6
2017-Apr-25 05:59N 38°05' W 009°31'3 6.6
2017-Apr-25 05:29N 38°07' W 009°28'3 6.5
2017-Apr-25 05:01N 38°09' W 009°25'3 6.2
2017-Apr-25 04:30N 38°11' W 009°23'4 6.5
2017-Apr-25 03:54N 38°14' W 009°19'3 6.4
2017-Apr-25 03:24N 38°16' W 009°16'3 6.6
2017-Apr-25 02:55N 38°18' W 009°13'4 7.1
2017-Apr-25 02:17N 38°20' W 009°08'4 6.5
2017-Apr-25 01:41N 38°24' W 009°07'1 6.9
2017-Apr-25 01:29N 38°25' W 009°06'1 1.9
2017-Apr-25 01:00N 38°26' W 009°07'0 0.0
2017-Apr-24 22:22N 38°26' W 009°07'0 0.0
2017-Apr-24 22:00N 38°26' W 009°07'0 0.0
2017-Apr-24 21:30N 38°26' W 009°07'0 0.0
2017-Apr-24 21:00N 38°26' W 009°07'0 0.0
2017-Apr-24 20:30N 38°26' W 009°07'0 0.0
2017-Apr-24 20:00N 38°26' W 009°07'0 0.2
2017-Apr-24 19:30N 38°26' W 009°07'0 0.0
2017-Apr-24 19:00N 38°26' W 009°07'0 0.0
2017-Apr-24 18:30N 38°26' W 009°07'0 0.0
2017-Apr-24 18:00N 38°26' W 009°07'0 0.0
2017-Apr-24 17:30N 38°26' W 009°07'0 0.0
2017-Apr-24 17:00N 38°26' W 009°07'0 0.0
2017-Apr-24 16:30N 38°26' W 009°07'0 0.1
2017-Apr-24 16:00N 38°26' W 009°07'1 1.9
2017-Apr-24 15:30N 38°25' W 009°06'3 5.5
2017-Apr-24 15:00N 38°23' W 009°08'3 6.6
2017-Apr-24 14:30N 38°20' W 009°11'7 7.4
2017-Apr-24 13:30N 38°15' W 009°17'4 7.3
2017-Apr-24 13:00N 38°13' W 009°21'8 7.2
2017-Apr-24 11:51N 38°07' W 009°29'2 6.8
2017-Apr-24 11:30N 38°05' W 009°31'4 7.1
2017-Apr-24 11:00N 38°03' W 009°34'3 7.0
2017-Apr-24 10:30N 38°00' W 009°37'40 6.8
2017-Apr-24 04:40N 37°30' W 010°10'2 6.6
2017-Apr-24 04:19N 37°29' W 010°12'2 6.6
2017-Apr-24 03:57N 37°27' W 010°14'3 6.5
2017-Apr-24 03:30N 37°25' W 010°17'3 6.5
2017-Apr-24 03:00N 37°23' W 010°20'3 6.6
2017-Apr-24 02:30N 37°20' W 010°22'3 6.6
2017-Apr-24 02:00N 37°18' W 010°25'3 6.7
2017-Apr-24 01:30N 37°15' W 010°28'3 6.8
2017-Apr-24 01:00N 37°13' W 010°31'3 6.8
2017-Apr-24 00:30N 37°10' W 010°34'3 7.0
2017-Apr-24 00:00N 37°07' W 010°36'3 6.8
2017-Apr-23 23:30N 37°05' W 010°39'3 6.8
2017-Apr-23 23:00N 37°02' W 010°42'3 6.7
2017-Apr-23 22:30N 36°60' W 010°45'3 6.6
2017-Apr-23 22:00N 36°57' W 010°47'3 6.8
2017-Apr-23 21:30N 36°55' W 010°50'3 6.7
2017-Apr-23 21:00N 36°52' W 010°53'3 6.5
2017-Apr-23 20:30N 36°50' W 010°56'3 6.6
2017-Apr-23 20:00N 36°48' W 010°59'9 2.0
2017-Apr-23 15:43N 36°43' W 011°08'0 1.3
2017-Apr-23 15:27N 36°43' W 011°08'1 1.3
2017-Apr-23 14:42N 36°44' W 011°08'0 0.7
2017-Apr-23 14:31N 36°44' W 011°08'  
2017-Apr-18 22:11N 38°17' W 010°09'1 6.7
2017-Apr-18 22:00N 38°18' W 010°09'3 6.4
2017-Apr-18 21:30N 38°21' W 010°07'3 6.1
2017-Apr-18 21:00N 38°24' W 010°06'3 6.1
2017-Apr-18 20:30N 38°27' W 010°04'3 6.2
2017-Apr-18 20:00N 38°29' W 010°02'3 6.5
2017-Apr-18 19:30N 38°32' W 009°59'3 6.6
2017-Apr-18 19:00N 38°35' W 009°57'3 6.6
2017-Apr-18 18:30N 38°37' W 009°55'3 6.6
2017-Apr-18 18:00N 38°40' W 009°52'3 6.5
2017-Apr-18 17:30N 38°43' W 009°51'3 6.7
2017-Apr-18 17:00N 38°46' W 009°49'3 6.9
2017-Apr-18 16:30N 38°49' W 009°46'4 7.2
2017-Apr-18 16:00N 38°52' W 009°44'4 7.3
2017-Apr-18 15:30N 38°55' W 009°41'4 7.2
2017-Apr-18 15:00N 38°58' W 009°39'4 7.6
2017-Apr-18 14:30N 39°01' W 009°36'8 7.7
2017-Apr-18 13:30N 39°08' W 009°31'4 7.7
2017-Apr-18 13:01N 39°11' W 009°29'4 7.5
2017-Apr-18 12:28N 39°15' W 009°26'7 0.4
2017-Apr-17 16:22N 39°21' W 009°22'0 0.0
2017-Apr-17 16:00N 39°21' W 009°22'0 0.0
2017-Apr-17 08:13N 39°21' W 009°22'  
Track history (hours):
 
Tides and Currents Weather Stations Pressure Air Temp Water Temp Dewpoint Dewpoint Depression Visibility Wind Speed Wind Dir Waves Ship Positions

Garcia Miguel

Last reported at 2017-Apr-25 06:04 UTC. Time now 2017-May-01 06:09 UTC.
Position N 38°04' W 009°32'.

Length 20 m.

Type: Fishing. MMSI: 263500286.

Date/timePositionNaut miles runAvg speedWind from/ knotsBaromVisibWave heightAir tempDewpointWater temp
2017-Apr-25 06:04N 38°04' W 009°32'1 6.6
2017-Apr-25 05:59N 38°05' W 009°31'3 6.6
2017-Apr-25 05:29N 38°07' W 009°28'3 6.5
2017-Apr-25 05:01N 38°09' W 009°25'3 6.2
2017-Apr-25 04:30N 38°11' W 009°23'4 6.5
2017-Apr-25 03:54N 38°14' W 009°19'3 6.4
2017-Apr-25 03:24N 38°16' W 009°16'3 6.6
2017-Apr-25 02:55N 38°18' W 009°13'4 7.1
2017-Apr-25 02:17N 38°20' W 009°08'4 6.5
2017-Apr-25 01:41N 38°24' W 009°07'1 6.9
2017-Apr-25 01:29N 38°25' W 009°06'1 1.9
2017-Apr-25 01:00N 38°26' W 009°07'0 0.0
2017-Apr-24 22:22N 38°26' W 009°07'0 0.0
2017-Apr-24 22:00N 38°26' W 009°07'0 0.0
2017-Apr-24 21:30N 38°26' W 009°07'0 0.0
2017-Apr-24 21:00N 38°26' W 009°07'0 0.0
2017-Apr-24 20:30N 38°26' W 009°07'0 0.0
2017-Apr-24 20:00N 38°26' W 009°07'0 0.2
2017-Apr-24 19:30N 38°26' W 009°07'0 0.0
2017-Apr-24 19:00N 38°26' W 009°07'0 0.0
2017-Apr-24 18:30N 38°26' W 009°07'0 0.0
2017-Apr-24 18:00N 38°26' W 009°07'0 0.0
2017-Apr-24 17:30N 38°26' W 009°07'0 0.0
2017-Apr-24 17:00N 38°26' W 009°07'0 0.0
2017-Apr-24 16:30N 38°26' W 009°07'0 0.1
2017-Apr-24 16:00N 38°26' W 009°07'1 1.9
2017-Apr-24 15:30N 38°25' W 009°06'3 5.5
2017-Apr-24 15:00N 38°23' W 009°08'3 6.6
2017-Apr-24 14:30N 38°20' W 009°11'7 7.4
2017-Apr-24 13:30N 38°15' W 009°17'4 7.3
2017-Apr-24 13:00N 38°13' W 009°21'8 7.2
2017-Apr-24 11:51N 38°07' W 009°29'2 6.8
2017-Apr-24 11:30N 38°05' W 009°31'4 7.1
2017-Apr-24 11:00N 38°03' W 009°34'3 7.0
2017-Apr-24 10:30N 38°00' W 009°37'40 6.8
2017-Apr-24 04:40N 37°30' W 010°10'2 6.6
2017-Apr-24 04:19N 37°29' W 010°12'2 6.6
2017-Apr-24 03:57N 37°27' W 010°14'3 6.5
2017-Apr-24 03:30N 37°25' W 010°17'3 6.5
2017-Apr-24 03:00N 37°23' W 010°20'3 6.6
2017-Apr-24 02:30N 37°20' W 010°22'3 6.6
2017-Apr-24 02:00N 37°18' W 010°25'3 6.7
2017-Apr-24 01:30N 37°15' W 010°28'3 6.8
2017-Apr-24 01:00N 37°13' W 010°31'3 6.8
2017-Apr-24 00:30N 37°10' W 010°34'3 7.0
2017-Apr-24 00:00N 37°07' W 010°36'3 6.8
2017-Apr-23 23:30N 37°05' W 010°39'3 6.8
2017-Apr-23 23:00N 37°02' W 010°42'3 6.7
2017-Apr-23 22:30N 36°60' W 010°45'3 6.6
2017-Apr-23 22:00N 36°57' W 010°47'3 6.8
2017-Apr-23 21:30N 36°55' W 010°50'3 6.7
2017-Apr-23 21:00N 36°52' W 010°53'3 6.5
2017-Apr-23 20:30N 36°50' W 010°56'3 6.6
2017-Apr-23 20:00N 36°48' W 010°59'9 2.0
2017-Apr-23 15:43N 36°43' W 011°08'0 1.3
2017-Apr-23 15:27N 36°43' W 011°08'1 1.3
2017-Apr-23 14:42N 36°44' W 011°08'0 0.7
2017-Apr-23 14:31N 36°44' W 011°08'  
2017-Apr-18 22:11N 38°17' W 010°09'1 6.7
2017-Apr-18 22:00N 38°18' W 010°09'3 6.4
2017-Apr-18 21:30N 38°21' W 010°07'3 6.1
2017-Apr-18 21:00N 38°24' W 010°06'3 6.1
2017-Apr-18 20:30N 38°27' W 010°04'3 6.2
2017-Apr-18 20:00N 38°29' W 010°02'3 6.5
2017-Apr-18 19:30N 38°32' W 009°59'3 6.6
2017-Apr-18 19:00N 38°35' W 009°57'3 6.6
2017-Apr-18 18:30N 38°37' W 009°55'3 6.6
2017-Apr-18 18:00N 38°40' W 009°52'3 6.5
2017-Apr-18 17:30N 38°43' W 009°51'3 6.7
2017-Apr-18 17:00N 38°46' W 009°49'3 6.9
2017-Apr-18 16:30N 38°49' W 009°46'4 7.2
2017-Apr-18 16:00N 38°52' W 009°44'4 7.3
2017-Apr-18 15:30N 38°55' W 009°41'4 7.2
2017-Apr-18 15:00N 38°58' W 009°39'4 7.6
2017-Apr-18 14:30N 39°01' W 009°36'8 7.7
2017-Apr-18 13:30N 39°08' W 009°31'4 7.7
2017-Apr-18 13:01N 39°11' W 009°29'4 7.5
2017-Apr-18 12:28N 39°15' W 009°26'7 0.4
2017-Apr-17 16:22N 39°21' W 009°22'0 0.0
2017-Apr-17 16:00N 39°21' W 009°22'0 0.0
2017-Apr-17 08:13N 39°21' W 009°22'  

Dump ship's entire track history